Time;durP1;ratioP1;P1;durP2;ratioP2;P2;SDS_P1;SDS_P2;PMS_P1;PMS_P2;Temp;Humidity;BMP_temperature;BMP_pressure;BME280_temperature;BME280_humidity;BME280_pressure;Samples;Min_cycle;Max_cycle;Signal;HPM_P1;HPM_P2
2023/07/19 04:31:34;;;;;;;2.88;1.20;;;;;;;;;;10393928;28;20061;-91
2023/07/19 04:37:00;;;;;;;2.05;1.17;;;;;;;;;;10416522;28;20128;-89
2023/07/19 04:42:08;;;;;;;2.10;1.07;;;;;;;;;;10399156;28;20053;-88
2023/07/19 04:47:14;;;;;;;1.42;1.20;;;;;;;;;;10405324;28;20548;-88
2023/07/19 05:04:12;;;;;;;;;;;;;;;;;;;;;
2023/07/19 05:17:34;;;;;;;;;;;;;;;;;;;;;
2023/07/19 05:35:45;;;;;;;2.50;1.00;;;;;;;;;;10268722;28;20041;-90
2023/07/19 05:41:09;;;;;;;3.58;1.17;;;;;;;;;;10387928;28;20500;-89
2023/07/19 05:46:35;;;;;;;;;;;;;;;;;;;;;
2023/07/19 06:33:03;;;;;;;2.38;0.93;;;;;;;;;;10098721;28;20043;-89
2023/07/19 06:38:20;;;;;;;2.92;1.02;;;;;;;;;;10270957;28;20039;-89
2023/07/19 06:44:01;;;;;;;1.95;0.95;;;;;;;;;;10251056;28;20047;-89
2023/07/19 06:49:26;;;;;;;1.45;0.90;;;;;;;;;;10357304;28;20065;-90
2023/07/19 06:54:51;;;;;;;1.98;0.90;;;;;;;;;;10388490;28;20059;-90
2023/07/19 07:00:32;;;;;;;0.93;0.80;;;;;;;;;;10380914;28;20061;-89
2023/07/19 07:06:31;;;;;;;1.25;1.00;;;;;;;;;;10241395;28;20047;-91
2023/07/19 07:12:49;;;;;;;0.60;0.60;;;;;;;;;;10274870;28;20045;-91
2023/07/19 07:18:37;;;;;;;2.65;0.80;;;;;;;;;;10376013;28;20046;-91
2023/07/19 07:29:47;;;;;;;1.20;1.00;;;;;;;;;;10393913;28;20046;-90
2023/07/19 07:35:43;;;;;;;2.30;0.80;;;;;;;;;;10377693;28;20045;-90
2023/07/19 07:41:54;;;;;;;0.82;0.65;;;;;;;;;;10388340;28;20512;-91
2023/07/19 07:47:37;;;;;;;1.45;0.80;;;;;;;;;;10388825;28;20052;-89
2023/07/19 07:53:13;;;;;;;1.20;0.68;;;;;;;;;;10373447;28;20061;-90
2023/07/19 07:58:39;;;;;;;1.60;0.70;;;;;;;;;;10300047;28;20519;-90
2023/07/19 08:04:12;;;;;;;1.48;1.17;;;;;;;;;;10374781;28;20124;-90
2023/07/19 08:09:34;;;;;;;2.95;1.00;;;;;;;;;;10369355;28;20046;-90
2023/07/19 08:27:54;;;;;;;1.75;1.27;;;;;;;;;;10218337;28;20043;-90
2023/07/19 08:40:42;;;;;;;2.10;1.60;;;;;;;;;;10246739;28;20054;-91
2023/07/19 08:59:21;;;;;;;2.30;1.50;;;;;;;;;;10191603;29;20446;-90
2023/07/19 09:37:45;;;;;;;3.73;1.50;;;;;;;;;;10198115;28;20050;-89
2023/07/19 09:44:23;;;;;;;;;;;;;;;;;;;;;
2023/07/19 09:57:13;;;;;;;2.38;1.38;;;;;;;;;;10152134;29;20139;-89
2023/07/19 10:21:41;;;;;;;1.98;1.30;;;;;;;;;;10392157;28;20072;-89
2023/07/19 10:26:50;;;;;;;1.92;1.20;;;;;;;;;;10218963;28;20057;-89
2023/07/19 10:32:42;;;;;;;2.17;1.17;;;;;;;;;;10281745;28;20057;-90
2023/07/19 10:38:23;;;;;;;2.08;0.90;;;;;;;;;;9979552;29;20759;-90
2023/07/19 10:49:29;;;;;;;1.70;1.27;;;;;;;;;;10112132;29;19927;-90
2023/07/19 10:55:08;;;;;;;;;;;;;;;;;;;;;
2023/07/19 11:00:43;;;;;;;3.03;1.15;;;;;;;;;;10107683;29;20145;-88
2023/07/19 11:06:15;;;;;;;0.93;0.60;;;;;;;;;;10199255;28;20050;-89
2023/07/19 11:11:22;;;;;;;2.92;1.05;;;;;;;;;;10344579;28;20045;-89
2023/07/19 11:16:27;;;;;;;1.88;1.08;;;;;;;;;;10414809;23;20041;-82
2023/07/19 11:21:31;;;;;;;1.75;0.90;;;;;;;;;;10422334;28;20098;-82
2023/07/19 11:26:52;;;;;;;0.85;0.75;;;;;;;;;;10417350;28;20128;-82
2023/07/19 11:32:18;;;;;;;4.25;1.10;;;;;;;;;;10416562;28;20104;-83
2023/07/19 11:37:24;;;;;;;0.50;0.43;;;;;;;;;;10433222;28;20037;-83
2023/07/19 11:42:45;;;;;;;3.35;0.80;;;;;;;;;;10421606;28;20537;-84
2023/07/19 11:47:50;;;;;;;2.28;0.80;;;;;;;;;;10420684;28;20069;-83
2023/07/19 11:52:56;;;;;;;1.00;0.60;;;;;;;;;;10420326;28;20120;-83
2023/07/19 11:58:03;;;;;;;1.20;0.98;;;;;;;;;;10434250;28;20052;-83
2023/07/19 12:03:06;;;;;;;1.92;0.90;;;;;;;;;;10416887;28;20553;-82
2023/07/19 12:08:10;;;;;;;1.20;0.80;;;;;;;;;;10416349;28;20408;-83
2023/07/19 12:13:15;;;;;;;3.10;0.80;;;;;;;;;;10419792;28;20144;-83
2023/07/19 12:18:19;;;;;;;2.22;0.80;;;;;;;;;;10420128;28;20060;-83
2023/07/19 12:23:22;;;;;;;1.33;0.80;;;;;;;;;;10437133;28;20045;-83
2023/07/19 12:28:29;;;;;;;2.58;0.68;;;;;;;;;;10418396;28;20052;-83
2023/07/19 12:33:33;;;;;;;1.10;0.88;;;;;;;;;;10405282;28;20475;-84
2023/07/19 12:38:36;;;;;;;1.52;0.80;;;;;;;;;;10433313;28;20131;-83
2023/07/19 12:43:41;;;;;;;1.83;0.90;;;;;;;;;;10419106;28;20045;-83
2023/07/19 12:48:44;;;;;;;1.23;1.10;;;;;;;;;;10412793;28;20523;-83
2023/07/19 12:53:51;;;;;;;0.95;0.70;;;;;;;;;;10429406;28;20041;-83
2023/07/19 12:58:56;;;;;;;2.20;0.90;;;;;;;;;;10416004;28;20049;-83
2023/07/19 13:04:02;;;;;;;2.03;1.25;;;;;;;;;;10434921;28;20492;-83
2023/07/19 13:09:07;;;;;;;2.58;1.40;;;;;;;;;;10420296;28;20045;-83
2023/07/19 13:14:14;;;;;;;2.25;1.20;;;;;;;;;;10412858;28;20091;-83
2023/07/19 13:19:18;;;;;;;3.67;1.42;;;;;;;;;;10416802;28;20065;-84
2023/07/19 13:24:27;;;;;;;1.70;1.15;;;;;;;;;;10422586;28;20075;-85
2023/07/19 13:29:32;;;;;;;1.60;1.20;;;;;;;;;;10426944;28;20076;-84
2023/07/19 13:34:37;;;;;;;4.00;1.20;;;;;;;;;;10423390;28;20515;-85
2023/07/19 13:39:41;;;;;;;2.00;1.40;;;;;;;;;;10436927;28;20124;-84
2023/07/19 13:44:52;;;;;;;2.55;1.40;;;;;;;;;;10424430;28;20041;-84
2023/07/19 13:49:55;;;;;;;1.88;1.00;;;;;;;;;;10426201;28;20524;-85
2023/07/19 13:54:59;;;;;;;1.20;0.85;;;;;;;;;;10423637;28;20091;-84
2023/07/19 14:00:06;;;;;;;1.67;0.85;;;;;;;;;;10436686;28;20049;-84
2023/07/19 14:05:12;;;;;;;1.10;0.70;;;;;;;;;;10442942;28;20052;-84
2023/07/19 14:10:17;;;;;;;1.80;0.90;;;;;;;;;;10415152;28;20257;-84
2023/07/19 14:15:23;;;;;;;1.75;0.95;;;;;;;;;;10423465;28;20059;-84
2023/07/19 14:20:26;;;;;;;;;;;;;;;;;;10437493;28;20037;-84
2023/07/19 14:25:30;;;;;;;3.38;1.15;;;;;;;;;;10434537;28;20463;-85
2023/07/19 14:30:35;;;;;;;2.80;1.45;;;;;;;;;;10418695;28;20132;-83
2023/07/19 14:35:38;;;;;;;;;;;;;;;;;;10412176;28;20052;-84
2023/07/19 14:40:41;;;;;;;2.22;1.27;;;;;;;;;;10435531;28;20019;-83
2023/07/19 14:45:46;;;;;;;4.10;1.73;;;;;;;;;;10409626;28;20079;-84
2023/07/19 14:50:49;;;;;;;2.13;1.17;;;;;;;;;;10428649;28;20104;-83
2023/07/19 14:55:58;;;;;;;2.15;1.00;;;;;;;;;;10408588;28;20063;-83
2023/07/19 15:01:02;;;;;;;1.98;1.40;;;;;;;;;;10421374;28;20040;-84
2023/07/19 15:06:06;;;;;;;1.30;0.88;;;;;;;;;;10415159;28;20049;-84
2023/07/19 15:11:10;;;;;;;3.42;1.05;;;;;;;;;;10418938;28;20041;-84
2023/07/19 15:16:15;;;;;;;1.83;1.08;;;;;;;;;;10422014;28;20041;-82
2023/07/19 15:21:19;;;;;;;1.48;0.90;;;;;;;;;;10420996;28;20072;-83
2023/07/19 15:26:26;;;;;;;1.33;0.90;;;;;;;;;;10413985;28;20132;-84
2023/07/19 15:31:38;;;;;;;1.67;1.02;;;;;;;;;;10410575;28;20508;-83
2023/07/19 15:36:43;;;;;;;1.30;0.80;;;;;;;;;;10418409;28;20045;-82
2023/07/19 15:41:46;;;;;;;3.80;1.30;;;;;;;;;;10415233;28;20755;-82
2023/07/19 15:46:51;;;;;;;2.50;1.15;;;;;;;;;;10417335;28;20064;-83
2023/07/19 15:51:57;;;;;;;1.98;1.00;;;;;;;;;;10403281;28;20132;-82
2023/07/19 15:57:00;;;;;;;2.05;1.00;;;;;;;;;;10437629;28;20133;-83
2023/07/19 16:02:09;;;;;;;1.35;0.70;;;;;;;;;;10419872;28;20128;-82
2023/07/19 16:07:12;;;;;;;1.88;0.70;;;;;;;;;;10418569;28;20049;-83
2023/07/19 16:12:16;;;;;;;1.30;0.68;;;;;;;;;;10434580;28;20041;-83
2023/07/19 16:17:21;;;;;;;1.20;0.70;;;;;;;;;;10436550;28;20128;-82
2023/07/19 16:22:24;;;;;;;1.53;1.17;;;;;;;;;;10418916;28;20534;-83
2023/07/19 16:27:28;;;;;;;3.05;1.17;;;;;;;;;;10413117;28;20654;-83
2023/07/19 16:32:33;;;;;;;3.35;0.90;;;;;;;;;;10436320;28;20120;-83
2023/07/19 16:37:36;;;;;;;1.87;0.93;;;;;;;;;;10415671;28;20100;-83
2023/07/19 16:42:39;;;;;;;1.05;0.63;;;;;;;;;;10415073;28;20127;-83
2023/07/19 16:47:44;;;;;;;0.73;0.55;;;;;;;;;;10436214;28;20051;-82
2023/07/19 16:52:48;;;;;;;0.88;0.40;;;;;;;;;;10418942;28;20045;-83
2023/07/19 16:57:51;;;;;;;1.25;0.50;;;;;;;;;;10413285;28;20069;-83
2023/07/19 17:02:57;;;;;;;0.80;0.50;;;;;;;;;;10409280;28;20045;-85
2023/07/19 17:08:03;;;;;;;0.40;0.40;;;;;;;;;;10441301;28;20069;-83
2023/07/19 17:18:39;;;;;;;1.20;0.60;;;;;;;;;;10361103;28;20080;-91
2023/07/19 17:24:22;;;;;;;1.35;0.43;;;;;;;;;;10324299;28;20137;-90
2023/07/19 17:29:36;;;;;;;2.40;0.60;;;;;;;;;;10345907;28;20053;-90
2023/07/19 17:34:59;;;;;;;3.85;0.80;;;;;;;;;;10365614;28;20113;-92
2023/07/19 17:40:07;;;;;;;1.08;0.63;;;;;;;;;;10368147;28;20046;-92
2023/07/19 17:45:14;;;;;;;1.42;0.50;;;;;;;;;;10363070;28;20038;-90
2023/07/19 17:50:19;;;;;;;0.57;0.40;;;;;;;;;;10346029;28;20045;-90
2023/07/19 17:55:28;;;;;;;1.17;0.32;;;;;;;;;;10364225;28;20461;-90
2023/07/19 18:00:35;;;;;;;1.45;0.50;;;;;;;;;;10366464;28;20073;-89
2023/07/19 18:05:44;;;;;;;1.13;0.50;;;;;;;;;;10355034;28;20050;-90
2023/07/19 18:10:55;;;;;;;0.50;0.40;;;;;;;;;;10358261;28;20064;-90
2023/07/19 18:16:01;;;;;;;0.57;0.50;;;;;;;;;;10366242;28;20077;-90
2023/07/19 18:21:07;;;;;;;1.15;0.50;;;;;;;;;;10349875;28;20076;-90
2023/07/19 18:26:17;;;;;;;1.20;0.60;;;;;;;;;;10386505;28;20042;-90
2023/07/19 18:31:25;;;;;;;0.50;0.40;;;;;;;;;;10359685;28;20033;-91
2023/07/19 18:36:33;;;;;;;0.30;0.22;;;;;;;;;;10357190;28;20128;-90
2023/07/19 18:41:38;;;;;;;0.73;0.40;;;;;;;;;;10353348;28;20068;-93
2023/07/19 18:46:59;;;;;;;1.90;0.60;;;;;;;;;;10364644;28;20080;-93
2023/07/19 18:52:07;;;;;;;2.83;0.20;;;;;;;;;;10341635;28;20034;-91
2023/07/19 18:57:31;;;;;;;1.33;0.57;;;;;;;;;;10353641;28;20069;-90
2023/07/19 19:02:38;;;;;;;1.35;0.40;;;;;;;;;;10337262;28;20074;-91
2023/07/19 19:08:02;;;;;;;0.90;0.40;;;;;;;;;;10333076;28;20042;-92
2023/07/19 19:13:09;;;;;;;0.65;0.25;;;;;;;;;;10363230;28;20043;-91
2023/07/19 19:18:28;;;;;;;0.73;0.30;;;;;;;;;;10349026;28;20586;-91
2023/07/19 19:23:44;;;;;;;0.47;0.30;;;;;;;;;;10365457;28;20513;-90
2023/07/19 19:28:56;;;;;;;;;;;;;;;;;;10338964;28;20051;-93
2023/07/19 19:34:28;;;;;;;1.42;0.40;;;;;;;;;;10380258;28;20288;-91
2023/07/19 19:39:40;;;;;;;0.38;0.28;;;;;;;;;;10356742;28;20042;-91
2023/07/19 19:45:12;;;;;;;0.95;0.40;;;;;;;;;;10208839;28;20049;-91
2023/07/19 19:50:40;;;;;;;1.60;0.50;;;;;;;;;;10355881;28;20042;-91
2023/07/19 19:55:53;;;;;;;0.57;0.50;;;;;;;;;;10350785;28;20136;-93
2023/07/19 20:01:21;;;;;;;1.48;0.60;;;;;;;;;;10326594;28;20042;-91
2023/07/19 20:06:34;;;;;;;0.50;0.50;;;;;;;;;;10370502;28;20128;-91
2023/07/19 20:11:47;;;;;;;0.52;0.38;;;;;;;;;;10371992;28;20104;-90
2023/07/19 20:16:51;;;;;;;1.00;0.65;;;;;;;;;;10379822;28;20077;-89
2023/07/19 20:21:55;;;;;;;0.88;0.60;;;;;;;;;;10359448;28;20527;-89
2023/07/19 20:27:04;;;;;;;0.77;0.50;;;;;;;;;;10370388;28;20084;-91
2023/07/19 20:32:10;;;;;;;1.30;0.55;;;;;;;;;;10361211;28;20050;-90
2023/07/19 20:37:18;;;;;;;0.70;0.60;;;;;;;;;;10363510;28;20052;-91
2023/07/19 20:42:26;;;;;;;0.90;0.63;;;;;;;;;;10370405;28;20686;-89
2023/07/19 20:47:31;;;;;;;5.63;0.70;;;;;;;;;;10365533;28;20456;-90
2023/07/19 20:52:43;;;;;;;0.70;0.40;;;;;;;;;;10373301;28;20057;-90
2023/07/19 20:57:51;;;;;;;0.80;0.50;;;;;;;;;;10371464;28;20038;-89
2023/07/19 21:02:55;;;;;;;1.80;0.70;;;;;;;;;;10363292;28;20121;-90
2023/07/19 21:08:04;;;;;;;1.17;0.70;;;;;;;;;;10369079;28;20044;-90
2023/07/19 21:13:14;;;;;;;1.60;0.70;;;;;;;;;;10358058;28;20061;-90
2023/07/19 21:18:18;;;;;;;1.90;0.82;;;;;;;;;;10377148;28;20093;-90
2023/07/19 21:23:25;;;;;;;;;;;;;;;;;;10363095;28;20124;-90
2023/07/19 21:28:34;;;;;;;1.23;0.70;;;;;;;;;;10364193;28;19948;-90
2023/07/19 21:33:41;;;;;;;0.93;0.65;;;;;;;;;;10363632;28;20068;-90
2023/07/19 21:38:46;;;;;;;1.42;0.63;;;;;;;;;;10378316;28;20046;-92
2023/07/19 21:43:54;;;;;;;1.33;0.75;;;;;;;;;;10358590;28;20544;-91
2023/07/19 21:48:58;;;;;;;1.00;0.73;;;;;;;;;;10388885;28;20047;-90
2023/07/19 21:54:05;;;;;;;0.82;0.60;;;;;;;;;;10382430;28;20037;-90
2023/07/19 21:59:14;;;;;;;1.38;0.70;;;;;;;;;;10385595;28;20124;-89
2023/07/19 22:04:18;;;;;;;1.40;0.80;;;;;;;;;;10361012;28;20044;-90
2023/07/19 22:09:26;;;;;;;1.38;0.63;;;;;;;;;;10369371;28;20041;-90
2023/07/19 22:14:33;;;;;;;1.20;0.60;;;;;;;;;;10360951;28;20034;-90
2023/07/19 22:19:41;;;;;;;1.13;0.65;;;;;;;;;;10376510;28;20039;-90
2023/07/19 22:24:59;;;;;;;1.52;0.68;;;;;;;;;;10360314;28;20084;-91
2023/07/19 22:30:11;;;;;;;2.30;0.75;;;;;;;;;;10382387;28;20038;-90
2023/07/19 22:35:18;;;;;;;3.20;1.10;;;;;;;;;;10365263;28;20037;-91
2023/07/19 22:40:26;;;;;;;1.35;0.60;;;;;;;;;;10370170;28;20069;-91
2023/07/19 22:45:34;;;;;;;2.03;0.52;;;;;;;;;;10379147;28;20044;-91
2023/07/19 22:50:40;;;;;;;0.80;0.60;;;;;;;;;;10375834;28;20080;-91
2023/07/19 22:55:50;;;;;;;0.93;0.65;;;;;;;;;;10364659;28;20049;-91
2023/07/19 23:01:00;;;;;;;2.03;0.90;;;;;;;;;;10393396;28;20415;-91
2023/07/19 23:06:17;;;;;;;2.17;0.98;;;;;;;;;;10388806;28;20048;-91
2023/07/19 23:11:24;;;;;;;1.48;0.73;;;;;;;;;;10380100;28;20038;-91
2023/07/19 23:16:32;;;;;;;2.42;0.90;;;;;;;;;;10373438;28;20052;-90
2023/07/19 23:21:37;;;;;;;1.27;0.68;;;;;;;;;;10397147;28;20116;-90
2023/07/19 23:26:45;;;;;;;2.17;1.05;;;;;;;;;;10385412;28;20073;-90
2023/07/19 23:31:56;;;;;;;1.73;0.90;;;;;;;;;;10386496;28;20041;-89
2023/07/19 23:37:07;;;;;;;1.42;0.90;;;;;;;;;;10355179;28;20061;-91
2023/07/19 23:42:22;;;;;;;1.48;1.00;;;;;;;;;;10349257;28;20464;-91
2023/07/19 23:47:38;;;;;;;1.67;0.85;;;;;;;;;;10381361;28;20489;-91
2023/07/19 23:53:11;;;;;;;;;;;;;;;;;;;;;
2023/07/19 23:58:16;;;;;;;1.83;1.00;;;;;;;;;;10374974;28;20050;-91
